Time;durP1;ratioP1;P1;durP2;ratioP2;P2;SDS_P1;SDS_P2;PMS_P1;PMS_P2;Temp;Humidity;BMP_temperature;BMP_pressure;BME280_temperature;BME280_humidity;BME280_pressure;Samples;Min_cycle;Max_cycle;Signal;HPM_P1;HPM_P2
2021/12/11 00:01:39;;;;;;;53.70;24.97;;;;;;;-4.88;82.29;99436.12;1817239;78;20956;-77
2021/12/11 00:04:15;;;;;;;50.63;24.17;;;;;;;-4.81;82.78;99433.64;1805381;79;20976;-77
2021/12/11 00:06:47;;;;;;;51.77;25.37;;;;;;;-4.66;83.15;99433.34;1805333;79;21023;-77
2021/12/11 00:09:28;;;;;;;52.60;24.17;;;;;;;-4.54;83.28;99436.87;1805022;79;21497;-77
2021/12/11 00:12:07;;;;;;;68.37;31.27;;;;;;;-4.49;83.02;99441.61;1804714;79;21504;-77
2021/12/11 00:14:39;;;;;;;82.20;34.40;;;;;;;-4.43;83.20;99439.52;1805409;79;20992;-77
2021/12/11 00:17:07;;;;;;;101.30;40.57;;;;;;;-4.30;83.73;99442.58;1805566;79;20984;-77
2021/12/11 00:19:38;;;;;;;99.60;39.27;;;;;;;-4.17;83.79;99444.81;1805274;78;20988;-77
2021/12/11 00:22:13;;;;;;;77.80;33.17;;;;;;;-4.09;83.86;99434.64;1805579;79;21319;-77
2021/12/11 00:24:41;;;;;;;70.83;31.47;;;;;;;-3.97;83.99;99437.69;1804524;78;21378;-77
2021/12/11 00:27:16;;;;;;;65.77;30.30;;;;;;;-3.93;83.70;99442.00;1805469;79;20992;-77
2021/12/11 00:29:43;;;;;;;61.20;29.67;;;;;;;-3.89;83.80;99436.03;1804573;79;21047;-77
2021/12/11 00:32:15;;;;;;;63.27;28.50;;;;;;;-3.81;83.95;99440.34;1805538;79;20988;-77
2021/12/11 00:34:44;;;;;;;61.00;28.40;;;;;;;-3.71;84.14;99447.66;1801828;79;21129;-77
2021/12/11 00:37:17;;;;;;;69.00;31.23;;;;;;;-3.59;84.47;99442.59;1805499;79;20960;-77
2021/12/11 00:39:59;;;;;;;66.17;30.10;;;;;;;-3.44;84.68;99445.63;1805248;79;20995;-77
2021/12/11 00:42:33;;;;;;;58.57;28.97;;;;;;;-3.34;84.47;99446.97;1800834;79;20972;-76
2021/12/11 00:44:56;;;;;;;59.65;27.65;;;;;;;-3.28;84.34;99450.40;1804609;79;20968;-77
2021/12/11 00:47:32;;;;;;;61.83;29.20;;;;;;;-3.18;84.41;99451.30;1805110;79;21230;-76
2021/12/11 00:50:07;;;;;;;57.03;28.53;;;;;;;-3.14;84.24;99450.02;1805255;79;20976;-77
2021/12/11 00:52:55;;;;;;;62.07;29.07;;;;;;;-3.09;84.11;99455.16;1805325;79;21496;-76
2021/12/11 00:55:35;;;;;;;60.03;28.27;;;;;;;-3.04;84.25;99458.60;1805208;79;21052;-76
2021/12/11 00:58:13;;;;;;;58.50;29.10;;;;;;;-3.00;83.89;99463.30;1805385;79;20976;-77
2021/12/11 01:00:48;;;;;;;60.10;28.67;;;;;;;-3.03;83.78;99464.15;1805409;79;21106;-77
2021/12/11 01:03:21;;;;;;;60.40;29.93;;;;;;;-3.00;83.95;99462.88;1805182;79;20972;-77
2021/12/11 01:05:53;;;;;;;58.43;29.27;;;;;;;-2.88;84.52;99462.06;1805336;79;21536;-77
2021/12/11 01:08:33;;;;;;;53.20;27.67;;;;;;;-2.83;84.28;99462.05;1805279;79;20969;-77
2021/12/11 01:11:18;;;;;;;56.50;28.20;;;;;;;-2.79;84.17;99472.34;1805340;79;21519;-77
2021/12/11 01:14:07;;;;;;;56.03;27.37;;;;;;;-2.75;83.96;99473.19;1805541;79;21084;-76
2021/12/11 01:16:28;;;;;;;51.70;27.00;;;;;;;-2.76;83.85;99471.05;1804035;79;21027;-77
2021/12/11 01:19:00;;;;;;;57.40;28.17;;;;;;;-2.82;83.33;99474.89;1805591;79;21004;-76
2021/12/11 01:21:44;;;;;;;58.90;28.90;;;;;;;-2.87;83.36;99474.45;1805346;79;20961;-77
2021/12/11 01:24:13;;;;;;;56.87;29.53;;;;;;;-2.87;83.54;99476.59;1803696;79;20956;-77
2021/12/11 01:26:52;;;;;;;49.33;25.70;;;;;;;-2.83;83.90;99473.16;1804943;79;21137;-77
2021/12/11 01:29:23;;;;;;;50.73;25.63;;;;;;;-2.90;82.87;99475.30;1805532;79;21000;-77
2021/12/11 01:31:52;;;;;;;52.63;25.27;;;;;;;-2.98;82.66;99478.27;1805196;79;20976;-77
2021/12/11 01:34:20;;;;;;;58.93;26.43;;;;;;;-3.07;82.29;99494.48;1805507;79;20964;-77
2021/12/11 01:36:48;;;;;;;56.70;26.67;;;;;;;-3.17;82.14;99492.73;1805248;78;21456;-77
2021/12/11 01:39:20;;;;;;;61.63;28.63;;;;;;;-3.25;82.02;99492.69;1805508;79;21239;-77
2021/12/11 01:41:51;;;;;;;59.27;27.53;;;;;;;-3.28;82.22;99503.36;1805200;79;20976;-77
2021/12/11 01:44:29;;;;;;;64.92;28.83;;;;;;;-3.33;82.24;99500.77;1805639;79;20972;-77
2021/12/11 01:47:09;;;;;;;66.33;29.03;;;;;;;-3.37;82.21;99507.59;1804589;79;21450;-77
2021/12/11 01:49:39;;;;;;;65.83;29.93;;;;;;;-3.39;82.39;99512.28;1788470;79;20973;-76
2021/12/11 01:52:15;;;;;;;60.23;29.72;;;;;;;-3.38;82.48;99511.02;1805296;79;21185;-76
2021/12/11 01:54:46;;;;;;;62.43;28.83;;;;;;;-3.38;82.65;99519.98;1804037;79;21019;-76
2021/12/11 01:57:24;;;;;;;57.63;27.97;;;;;;;-3.37;82.73;99519.13;1805426;79;21513;-77
2021/12/11 02:00:03;;;;;;;54.43;27.97;;;;;;;-3.33;82.82;99520.42;1805184;79;21454;-76
2021/12/11 02:02:36;;;;;;;57.33;27.07;;;;;;;-3.34;82.82;99527.25;1811587;78;27335;-76
2021/12/11 02:05:07;;;;;;;59.33;29.20;;;;;;;-3.35;82.79;99534.52;1794075;80;21124;-76
2021/12/11 02:07:45;;;;;;;60.00;29.12;;;;;;;-3.22;83.64;99543.95;1822397;78;21036;-76
2021/12/11 02:10:20;;;;;;;58.70;29.43;;;;;;;-3.22;83.64;99543.95;1793187;80;21479;-76
2021/12/11 02:12:50;;;;;;;63.10;29.30;;;;;;;-3.17;83.66;99555.09;1822048;78;20967;-76
2021/12/11 02:15:29;;;;;;;59.23;30.93;;;;;;;-3.12;83.63;99550.00;1794134;80;20972;-77
2021/12/11 02:18:12;;;;;;;66.47;31.97;;;;;;;-3.13;83.53;99557.27;1821743;78;21172;-76
2021/12/11 02:20:54;;;;;;;59.73;30.80;;;;;;;-3.07;84.01;99556.44;1794085;80;20983;-76
2021/12/11 02:23:22;;;;;;;61.00;30.27;;;;;;;-3.04;83.87;99558.58;1820653;78;20967;-76
2021/12/11 02:25:53;;;;;;;57.00;29.33;;;;;;;-2.95;84.24;99565.45;1794402;80;21503;-77
2021/12/11 02:28:36;;;;;;;57.67;28.57;;;;;;;-2.86;84.38;99571.04;1822250;78;21003;-76
2021/12/11 02:31:29;;;;;;;51.07;27.60;;;;;;;-2.79;84.16;99568.94;1794008;80;21052;-76
2021/12/11 02:34:20;;;;;;;54.40;28.00;;;;;;;-2.81;83.88;99575.33;1821966;78;20964;-77
2021/12/11 02:36:54;;;;;;;;;;;;;;;-2.77;84.17;99584.77;1745214;80;20911;-77
2021/12/11 02:39:35;;;;;;;56.83;27.93;;;;;;;-2.71;84.22;99580.94;1794158;80;20167;-77
2021/12/11 02:42:35;;;;;;;57.70;27.67;;;;;;;-2.68;84.12;99582.66;1822184;78;21565;-76
2021/12/11 02:45:21;;;;;;;55.47;27.40;;;;;;;-2.65;84.36;99589.51;1793507;80;21139;-77
2021/12/11 02:47:56;;;;;;;56.77;29.20;;;;;;;-2.52;84.74;99593.83;1820598;78;21421;-77
2021/12/11 02:50:34;;;;;;;47.73;25.90;;;;;;;-2.47;84.45;99605.82;1794043;80;21063;-76
2021/12/11 02:53:19;;;;;;;52.13;27.37;;;;;;;-2.50;84.13;99609.63;1822213;78;20983;-77
2021/12/11 02:56:17;;;;;;;50.63;27.43;;;;;;;-2.44;84.55;99613.92;1776994;80;21022;-77
2021/12/11 02:58:50;;;;;;;47.60;24.50;;;;;;;-2.34;84.65;99614.39;1807709;78;21546;-77
2021/12/11 03:01:27;;;;;;;50.47;25.70;;;;;;;-2.35;84.33;99625.52;1757436;80;21408;-77
2021/12/11 03:04:11;;;;;;;49.47;25.00;;;;;;;-2.31;84.53;99623.81;1713220;81;21015;-77
2021/12/11 03:06:40;;;;;;;48.73;25.37;;;;;;;-2.26;84.59;99633.23;1745901;81;21003;-76
2021/12/11 03:09:04;;;;;;;49.13;25.30;;;;;;;-2.25;84.52;99636.22;1747200;81;21232;-76
2021/12/11 03:11:32;;;;;;;47.47;24.97;;;;;;;-2.19;84.65;99635.81;1747773;82;21116;-76
2021/12/11 03:14:03;;;;;;;48.90;24.90;;;;;;;-2.16;84.58;99641.83;1747742;82;21012;-76
2021/12/11 03:16:34;;;;;;;46.90;24.10;;;;;;;-2.12;84.66;99642.25;1747866;82;21026;-76
2021/12/11 03:19:05;;;;;;;46.83;23.90;;;;;;;-2.08;84.56;99653.38;1747711;82;20984;-76
2021/12/11 03:21:32;;;;;;;43.67;23.53;;;;;;;-2.05;84.55;99655.95;1747988;82;21277;-76
2021/12/11 03:24:00;;;;;;;43.63;23.37;;;;;;;-2.03;84.71;99657.67;1747867;82;21569;-76
2021/12/11 03:26:27;;;;;;;39.97;22.87;;;;;;;-1.99;84.50;99662.41;1747751;82;20908;-76
2021/12/11 03:28:54;;;;;;;46.90;23.27;;;;;;;-2.00;84.37;99662.39;1747833;82;21011;-76
2021/12/11 03:31:22;;;;;;;43.63;22.73;;;;;;;-1.96;84.73;99667.55;1748004;82;21504;-76
2021/12/11 03:33:54;;;;;;;39.57;22.87;;;;;;;-1.91;84.68;99676.52;1747981;82;21004;-76
2021/12/11 03:36:23;;;;;;;47.20;24.00;;;;;;;-1.87;84.88;99675.69;1747981;82;21441;-76
2021/12/11 03:38:55;;;;;;;43.13;22.47;;;;;;;-1.80;85.13;99683.41;1747729;82;21481;-76
2021/12/11 03:41:25;;;;;;;41.03;22.63;;;;;;;-1.70;85.22;99688.13;1748003;82;21019;-76
2021/12/11 03:43:52;;;;;;;47.07;23.43;;;;;;;-1.72;84.79;99685.97;1748576;82;21440;-76
2021/12/11 03:46:21;;;;;;;39.37;21.80;;;;;;;-1.69;84.97;99691.54;1748047;82;21431;-76
2021/12/11 03:48:56;;;;;;;43.03;21.40;;;;;;;-1.67;84.85;99697.55;1747965;82;21086;-76
2021/12/11 03:51:30;;;;;;;42.60;20.93;;;;;;;-1.57;85.43;99696.28;1747862;82;20928;-76
2021/12/11 03:54:01;;;;;;;41.97;21.60;;;;;;;-1.45;85.59;99698.42;1748102;82;21016;-76
2021/12/11 03:56:29;;;;;;;38.37;21.07;;;;;;;-1.38;85.38;99698.44;1747906;82;21477;-76
2021/12/11 03:58:56;;;;;;;41.33;21.07;;;;;;;-1.35;85.27;99704.01;1748140;82;21023;-76
2021/12/11 04:01:31;;;;;;;42.73;20.90;;;;;;;-1.31;85.23;99707.42;1747895;82;21863;-76
2021/12/11 04:04:04;;;;;;;35.60;20.60;;;;;;;-1.27;85.21;99710.44;1747697;81;20987;-76
2021/12/11 04:06:32;;;;;;;39.17;20.17;;;;;;;-1.23;85.14;99719.42;1747700;81;21484;-76
2021/12/11 04:09:01;;;;;;;38.93;20.97;;;;;;;-1.22;85.09;99716.41;1747995;82;20980;-76
2021/12/11 04:11:33;;;;;;;41.63;21.35;;;;;;;-1.20;85.07;99720.70;1748024;82;21026;-76
2021/12/11 04:14:15;;;;;;;37.07;20.80;;;;;;;-1.17;84.98;99730.12;1748280;82;21445;-76
2021/12/11 04:16:43;;;;;;;39.40;20.73;;;;;;;-1.18;84.88;99733.13;1747783;82;21005;-76
2021/12/11 04:19:13;;;;;;;38.70;20.30;;;;;;;-1.18;85.09;99730.56;1748081;82;20992;-76
2021/12/11 04:21:41;;;;;;;37.87;20.73;;;;;;;-1.10;85.31;99740.86;1747759;82;21003;-77
2021/12/11 04:24:10;;;;;;;32.83;20.13;;;;;;;-1.12;84.93;99743.84;1748130;82;21019;-76
2021/12/11 04:26:37;;;;;;;39.43;21.20;;;;;;;-1.10;85.07;99743.86;1747834;82;22012;-76
2021/12/11 04:29:06;;;;;;;37.50;20.80;;;;;;;-1.12;85.08;99745.98;1748047;82;20900;-77
2021/12/11 04:31:36;;;;;;;37.97;21.03;;;;;;;-1.08;85.20;99749.44;1747731;82;20996;-76
2021/12/11 04:34:07;;;;;;;38.20;19.42;;;;;;;-1.03;85.38;99755.41;1748187;82;21015;-76
2021/12/11 04:36:39;;;;;;;38.60;21.77;;;;;;;-1.02;84.94;99752.44;1747798;82;21069;-77
2021/12/11 04:39:11;;;;;;;36.33;19.83;;;;;;;-1.06;84.95;99761.84;1748226;81;21114;-77
2021/12/11 04:41:49;;;;;;;39.13;19.80;;;;;;;-1.04;85.08;99765.72;1747708;82;21003;-77
2021/12/11 04:44:16;;;;;;;32.00;18.67;;;;;;;-1.02;85.28;99768.72;1747197;81;21008;-76
2021/12/11 04:46:43;;;;;;;40.70;20.93;;;;;;;-0.95;85.43;99774.27;1747330;81;21055;-77
2021/12/11 04:49:32;;;;;;;38.23;20.83;;;;;;;-0.94;85.28;99774.72;1748277;82;21091;-77
2021/12/11 04:52:03;;;;;;;51.77;25.53;;;;;;;-0.91;85.43;99782.44;1746164;81;21221;-77
2021/12/11 04:54:35;;;;;;;45.07;24.27;;;;;;;-0.91;85.28;99788.02;1746022;81;22191;-77
2021/12/11 05:05:14;;;;;;;44.77;25.70;;;;;;;-0.88;85.31;99814.17;1747837;82;21528;-77
2021/12/11 05:07:41;;;;;;;47.40;25.03;;;;;;;-0.94;84.84;99810.73;1745809;81;21035;-77
2021/12/11 05:10:23;;;;;;;42.30;23.83;;;;;;;-1.02;84.66;99815.02;1746658;81;21533;-77
2021/12/11 05:12:53;;;;;;;42.50;24.70;;;;;;;-1.07;84.68;99819.30;1747637;81;21023;-76
2021/12/11 05:15:28;;;;;;;49.03;24.53;;;;;;;-1.11;84.75;99818.84;1748135;82;21103;-76
2021/12/11 05:17:57;;;;;;;47.30;24.83;;;;;;;-1.12;84.79;99821.85;1746819;81;21959;-76
2021/12/11 05:20:29;;;;;;;48.20;24.93;;;;;;;-1.15;84.76;99823.14;1747935;82;21481;-76
2021/12/11 05:22:57;;;;;;;44.97;24.73;;;;;;;-1.20;84.53;99831.27;1747765;82;21015;-76
2021/12/11 05:25:24;;;;;;;43.57;24.17;;;;;;;-1.23;84.66;99827.41;1748170;82;21015;-76
2021/12/11 05:27:51;;;;;;;51.30;27.10;;;;;;;-1.24;84.77;99834.70;1747734;82;21015;-76
2021/12/11 05:30:23;;;;;;;44.97;24.03;;;;;;;-1.22;85.08;99838.15;1748045;82;21345;-76
2021/12/11 05:32:51;;;;;;;46.13;25.37;;;;;;;-1.20;85.14;99847.13;1745910;81;21527;-76
2021/12/11 05:35:19;;;;;;;42.20;24.47;;;;;;;-1.19;85.15;99849.72;1748059;82;21071;-76
2021/12/11 05:37:47;;;;;;;46.77;24.60;;;;;;;-1.18;85.16;99850.58;1747782;82;21504;-76
2021/12/11 05:40:19;;;;;;;46.17;25.50;;;;;;;-1.13;85.36;99854.02;1748037;82;21023;-77
2021/12/11 05:42:47;;;;;;;48.37;25.23;;;;;;;-1.10;85.23;99857.02;1747983;82;21772;-76
2021/12/11 05:45:15;;;;;;;48.07;25.27;;;;;;;-1.13;84.91;99860.02;1747994;82;21011;-76
2021/12/11 05:47:42;;;;;;;47.70;25.80;;;;;;;-1.14;84.92;99859.59;1747936;82;21007;-77
2021/12/11 05:50:14;;;;;;;50.43;26.57;;;;;;;-1.15;84.87;99869.43;1747794;82;20988;-76
2021/12/11 05:52:42;;;;;;;48.10;25.53;;;;;;;-1.16;84.73;99866.88;1747517;82;21066;-76
2021/12/11 05:55:13;;;;;;;57.83;30.40;;;;;;;-1.21;84.59;99868.14;1747703;82;21176;-76
2021/12/11 05:57:38;;;;;;;62.80;32.93;;;;;;;-1.22;84.60;99864.27;1747010;81;21066;-76
2021/12/11 06:00:10;;;;;;;59.03;29.83;;;;;;;-1.25;84.60;99874.11;1747850;82;21035;-76
2021/12/11 06:02:39;;;;;;;51.90;28.03;;;;;;;-1.27;84.65;99871.13;1748027;82;21746;-76
2021/12/11 06:05:06;;;;;;;52.93;27.93;;;;;;;-1.31;84.63;99871.53;1742988;81;21412;-76
2021/12/11 06:07:33;;;;;;;59.83;30.03;;;;;;;-1.32;84.78;99877.54;1742635;82;21138;-76
2021/12/11 06:10:09;;;;;;;50.80;26.27;;;;;;;-1.32;84.76;99882.68;1742780;82;21006;-76
2021/12/11 06:12:36;;;;;;;48.67;28.07;;;;;;;-1.34;84.81;99884.38;1742693;82;21029;-76
2021/12/11 06:15:05;;;;;;;51.03;28.90;;;;;;;-1.32;84.98;99888.26;1742787;82;20994;-76
2021/12/11 06:17:34;;;;;;;49.23;26.37;;;;;;;-1.32;84.92;99900.68;1742777;81;20988;-76
2021/12/11 06:20:06;;;;;;;51.50;26.57;;;;;;;-1.32;84.91;99903.25;1742941;82;21101;-76
2021/12/11 06:22:35;;;;;;;44.63;25.07;;;;;;;-1.34;84.92;99904.95;1742661;82;21423;-77
2021/12/11 06:25:06;;;;;;;42.03;23.43;;;;;;;-1.33;85.06;99914.41;1742727;82;20990;-76
2021/12/11 06:27:34;;;;;;;44.40;24.50;;;;;;;-1.32;84.95;99912.68;1742208;82;21446;-76
2021/12/11 06:30:02;;;;;;;48.47;25.47;;;;;;;-1.35;84.78;99929.80;1722252;82;20974;-76
2021/12/11 06:32:29;;;;;;;49.80;26.00;;;;;;;-1.37;84.84;99930.22;1742850;82;21140;-76
2021/12/11 06:35:00;;;;;;;49.43;25.60;;;;;;;-1.37;84.98;99935.80;1742910;82;21061;-76
2021/12/11 06:37:27;;;;;;;59.43;30.47;;;;;;;-1.28;85.32;99937.53;1742973;82;20993;-76
2021/12/11 06:39:54;;;;;;;56.87;29.20;;;;;;;-1.23;85.52;99943.13;1742802;82;21440;-76
2021/12/11 06:42:22;;;;;;;52.33;27.73;;;;;;;-1.15;85.57;99944.44;1743038;82;21045;-76
2021/12/11 06:44:49;;;;;;;50.63;25.87;;;;;;;-1.12;85.39;99949.16;1742705;82;21142;-76
2021/12/11 06:47:16;;;;;;;52.07;26.87;;;;;;;-1.10;85.42;99953.47;1742907;82;20970;-76
2021/12/11 06:49:45;;;;;;;47.57;24.57;;;;;;;-1.07;85.36;99958.62;1742739;82;21053;-76
2021/12/11 06:52:17;;;;;;;47.50;25.73;;;;;;;-1.09;85.04;99966.75;1742897;82;20994;-76
2021/12/11 06:54:45;;;;;;;47.57;24.50;;;;;;;-1.10;85.13;99976.62;1742709;81;21045;-76
2021/12/11 06:57:12;;;;;;;49.20;24.97;;;;;;;-1.05;85.37;99970.63;1743067;81;21523;-76
2021/12/11 06:59:40;;;;;;;48.23;24.70;;;;;;;-1.03;85.04;99974.48;1742705;82;21530;-76
2021/12/11 07:02:07;;;;;;;49.87;25.57;;;;;;;-1.05;84.90;99985.18;1742998;82;21022;-76
2021/12/11 07:04:34;;;;;;;44.50;23.73;;;;;;;-1.09;84.87;99988.18;1746033;81;21007;-77
2021/12/11 07:07:02;;;;;;;44.33;24.67;;;;;;;-1.09;84.77;99991.19;1748066;82;21063;-76
2021/12/11 07:09:31;;;;;;;49.83;28.63;;;;;;;-1.09;85.08;99995.89;1747731;82;21934;-76
2021/12/11 07:11:59;;;;;;;56.90;28.97;;;;;;;-1.05;84.98;99997.64;1747994;82;21121;-77
2021/12/11 07:14:30;;;;;;;53.73;28.43;;;;;;;-1.02;85.07;100000.66;1747781;82;21019;-76
2021/12/11 07:16:58;;;;;;;53.73;27.40;;;;;;;-1.01;85.09;100003.21;1748006;82;21236;-76
2021/12/11 07:19:25;;;;;;;47.80;25.83;;;;;;;-0.97;85.16;99998.92;1747812;82;21495;-76
2021/12/11 07:21:54;;;;;;;49.73;25.67;;;;;;;-0.94;85.09;100005.40;1747886;82;21022;-76
2021/12/11 07:24:30;;;;;;;50.47;24.77;;;;;;;-0.92;85.16;100010.09;1747753;82;21015;-76
2021/12/11 07:26:55;;;;;;;44.40;23.97;;;;;;;-0.89;85.00;100020.39;1757590;79;21027;-76
2021/12/11 07:29:22;;;;;;;49.17;25.80;;;;;;;-0.88;84.99;100023.42;1767583;79;21015;-77
2021/12/11 07:31:51;;;;;;;45.57;24.77;;;;;;;-0.84;85.14;100021.27;1774530;79;21019;-77
2021/12/11 07:34:20;;;;;;;47.23;25.37;;;;;;;-0.81;85.20;100025.58;1778519;79;21084;-77
2021/12/11 07:36:50;;;;;;;43.80;24.97;;;;;;;-0.78;85.12;100029.01;1751933;80;20972;-76
2021/12/11 07:39:21;;;;;;;46.28;25.35;;;;;;;-0.76;84.99;100031.59;1748251;80;21032;-77
2021/12/11 07:41:49;;;;;;;53.73;28.37;;;;;;;-0.75;84.95;100035.88;1771763;79;21083;-76
2021/12/11 07:44:17;;;;;;;58.23;31.93;;;;;;;-0.75;85.00;100040.63;1778508;80;21493;-77
2021/12/11 07:46:44;;;;;;;63.67;33.23;;;;;;;-0.72;84.94;100045.78;1778877;80;21097;-78
2021/12/11 07:49:12;;;;;;;67.17;34.00;;;;;;;-0.75;84.69;100053.89;1778451;80;21010;-76
2021/12/11 07:51:40;;;;;;;61.37;32.73;;;;;;;-0.73;85.02;100050.91;1778939;80;20996;-76
2021/12/11 07:54:08;;;;;;;59.07;31.13;;;;;;;-0.71;84.91;100053.06;1778557;80;20984;-75
2021/12/11 07:56:38;;;;;;;52.97;29.93;;;;;;;-0.70;84.88;100053.05;1756978;80;21236;-74
2021/12/11 07:59:07;;;;;;;57.90;28.83;;;;;;;-0.66;84.94;100068.10;1778486;80;21466;-75
2021/12/11 08:01:39;;;;;;;58.73;31.52;;;;;;;-0.66;84.91;100074.97;1778704;80;20858;-77
2021/12/11 08:04:06;;;;;;;72.50;36.27;;;;;;;-0.64;85.01;100082.24;1776743;80;21008;-76
2021/12/11 08:06:36;;;;;;;102.30;46.33;;;;;;;-0.60;85.04;100078.84;1773432;80;20932;-74
2021/12/11 08:09:08;;;;;;;103.65;44.83;;;;;;;-0.58;85.03;100076.70;1773594;80;21024;-76
2021/12/11 08:11:36;;;;;;;92.53;42.63;;;;;;;-0.55;84.99;100078.00;1773431;80;22001;-74
2021/12/11 08:14:04;;;;;;;83.50;40.50;;;;;;;-0.53;84.81;100083.14;1773671;80;20948;-74
2021/12/11 08:16:44;;;;;;;78.53;41.37;;;;;;;-0.52;84.87;100083.59;1773499;80;21266;-75
2021/12/11 08:19:05;;;;;;;72.00;35.97;;;;;;;-0.50;84.85;100093.44;1772556;80;20931;-74
2021/12/11 08:21:32;;;;;;;69.93;39.33;;;;;;;-0.47;84.89;100094.77;1773479;80;21062;-74
2021/12/11 08:24:04;;;;;;;71.23;38.47;;;;;;;-0.44;85.05;100097.34;1773589;80;21954;-76
2021/12/11 08:26:28;;;;;;;65.50;36.63;;;;;;;-0.40;84.91;100103.35;1773122;80;20984;-78
2021/12/11 08:28:55;;;;;;;82.23;39.47;;;;;;;-0.40;84.82;100104.64;1773663;80;20928;-76
2021/12/11 08:31:23;;;;;;;87.13;41.77;;;;;;;-0.38;84.92;100106.80;1773444;80;21071;-75
2021/12/11 08:33:53;;;;;;;83.70;39.50;;;;;;;-0.35;85.17;100109.38;1773443;80;20976;-78
2021/12/11 08:36:23;;;;;;;85.40;43.83;;;;;;;-0.31;85.14;100115.81;1773547;80;21122;-76
2021/12/11 08:38:51;;;;;;;;;;;;;;;-0.29;85.17;100114.11;1776351;80;20964;-76
2021/12/11 08:41:23;;;;;;;126.77;60.77;;;;;;;-0.29;84.97;100111.97;1773514;80;20168;-77
2021/12/11 08:44:02;;;;;;;107.73;54.30;;;;;;;-0.26;85.00;100124.84;1773735;80;21000;-74
2021/12/11 08:46:31;;;;;;;233.80;113.30;;;;;;;-0.25;85.07;100129.13;1773096;80;21016;-76
2021/12/11 08:49:02;;;;;;;101.83;50.97;;;;;;;-0.22;84.99;100143.33;1773647;80;21501;-76
2021/12/11 08:51:41;;;;;;;118.63;54.97;;;;;;;-0.20;85.07;100142.89;1772886;80;21549;-78
2021/12/11 08:54:09;;;;;;;57.40;31.47;;;;;;;-0.17;85.06;100148.47;1772724;80;21517;-79
2021/12/11 08:56:38;;;;;;;89.50;42.73;;;;;;;-0.14;85.11;100153.23;1773726;80;21008;-80
2021/12/11 08:59:10;;;;;;;74.37;37.97;;;;;;;-0.12;84.87;100158.37;1773422;80;21277;-77
2021/12/11 09:01:51;;;;;;;103.97;51.03;;;;;;;-0.09;84.97;100159.66;1759796;80;21957;-76
2021/12/11 09:04:33;;;;;;;74.13;36.33;;;;;;;-0.06;84.98;100168.68;1755639;80;21069;-78
2021/12/11 09:07:05;;;;;;;50.53;27.67;;;;;;;-0.02;85.10;100169.14;1723175;82;21047;-76
2021/12/11 09:09:46;;;;;;;65.73;33.63;;;;;;;0.04;85.13;100173.45;1741867;81;21035;-78
2021/12/11 09:12:25;;;;;;;59.73;29.07;;;;;;;0.13;85.33;100176.03;1765708;81;21036;-78
2021/12/11 09:15:09;;;;;;;102.30;49.60;;;;;;;0.19;85.34;100188.92;1767007;81;21494;-77
2021/12/11 09:17:47;;;;;;;75.23;36.43;;;;;;;0.24;85.31;100201.83;1766977;81;20984;-78
2021/12/11 09:20:30;;;;;;;64.37;35.10;;;;;;;0.27;85.46;100200.53;1766885;81;20985;-84
2021/12/11 09:23:09;;;;;;;64.97;32.70;;;;;;;0.32;85.41;100206.56;1766592;81;21015;-86
2021/12/11 09:25:42;;;;;;;52.80;28.40;;;;;;;0.36;85.32;100210.45;1766864;81;20997;-83
2021/12/11 09:28:23;;;;;;;65.43;32.37;;;;;;;0.39;85.18;100214.75;1766532;81;21213;-81
2021/12/11 09:30:58;;;;;;;46.10;25.30;;;;;;;0.41;85.36;100219.46;1767184;81;20989;-84
2021/12/11 09:33:31;;;;;;;48.20;24.40;;;;;;;0.47;85.24;100216.03;1766729;81;21024;-80
2021/12/11 09:36:12;;;;;;;42.47;22.83;;;;;;;0.51;85.14;100221.20;1767278;81;21536;-83
2021/12/11 09:38:44;;;;;;;68.70;34.27;;;;;;;0.54;85.08;100234.53;1767103;81;21155;-84
2021/12/11 09:41:24;;;;;;;59.10;29.97;;;;;;;0.58;85.25;100232.38;1767395;81;21110;-84
2021/12/11 09:44:15;;;;;;;118.57;58.13;;;;;;;0.62;85.24;100234.97;1756446;81;21461;-81
2021/12/11 09:46:56;;;;;;;88.87;45.17;;;;;;;0.72;85.36;100241.00;1723068;83;21456;-75
2021/12/11 09:49:28;;;;;;;99.63;48.87;;;;;;;0.77;85.20;100241.84;1758492;81;21003;-76
2021/12/11 09:52:15;;;;;;;64.60;34.93;;;;;;;0.77;85.05;100244.42;1774972;80;21489;-75
2021/12/11 09:54:35;;;;;;;96.90;46.70;;;;;;;0.80;85.22;100247.44;1737490;82;21121;-76
2021/12/11 09:57:10;;;;;;;130.37;63.10;;;;;;;0.82;85.31;100249.59;1722796;83;21027;-78
2021/12/11 09:59:41;;;;;;;82.20;42.23;;;;;;;0.85;85.33;100245.28;1739506;82;20985;-81
2021/12/11 10:02:13;;;;;;;93.13;47.37;;;;;;;0.92;85.41;100248.74;1757647;81;21483;-80
2021/12/11 10:04:58;;;;;;;101.63;52.90;;;;;;;1.00;85.39;100248.72;1765658;80;20979;-79
2021/12/11 10:07:29;;;;;;;95.22;49.88;;;;;;;1.07;85.43;100252.59;1788458;80;21149;-74
2021/12/11 10:10:01;;;;;;;77.43;39.80;;;;;;;1.11;85.09;100256.91;1789371;80;21026;-82
2021/12/11 10:12:34;;;;;;;87.00;44.30;;;;;;;1.16;85.10;100258.61;1788776;80;21070;-74
2021/12/11 10:15:21;;;;;;;89.70;46.63;;;;;;;1.20;85.08;100264.22;1789538;80;20984;-77
2021/12/11 10:17:56;;;;;;;101.57;54.60;;;;;;;1.24;84.97;100271.93;1789468;80;21583;-79
2021/12/11 10:20:41;;;;;;;127.17;65.67;;;;;;;1.26;84.93;100282.27;1789080;80;21535;-84
2021/12/11 10:23:13;;;;;;;167.73;82.27;;;;;;;1.31;85.07;100283.13;1789289;79;20995;-79
2021/12/11 10:25:43;;;;;;;178.57;88.87;;;;;;;1.35;84.96;100277.09;1789364;80;21027;-79
2021/12/11 10:28:13;;;;;;;135.93;69.53;;;;;;;1.36;84.80;100285.28;1789777;80;20927;-80
2021/12/11 10:30:45;;;;;;;138.30;71.90;;;;;;;1.37;84.70;100286.14;1789409;80;21024;-80
2021/12/11 10:33:15;;;;;;;143.73;71.80;;;;;;;1.41;84.74;100280.09;1789675;80;21084;-86
2021/12/11 10:35:46;;;;;;;128.47;62.23;;;;;;;1.43;84.72;100278.38;1789390;80;21008;-84
2021/12/11 10:38:14;;;;;;;133.33;66.87;;;;;;;1.44;84.56;100281.37;1789743;80;21063;-79
2021/12/11 10:40:46;;;;;;;126.90;63.33;;;;;;;1.46;84.50;100292.13;1789403;80;20975;-77
2021/12/11 10:43:28;;;;;;;115.07;53.43;;;;;;;1.51;84.54;100293.42;1789662;80;21547;-80
2021/12/11 10:45:57;;;;;;;36.17;20.97;;;;;;;1.56;84.63;100298.16;1776172;80;21413;-84
2021/12/11 10:48:29;;;;;;;48.10;24.40;;;;;;;1.56;84.01;100295.14;1789442;80;21484;-81
2021/12/11 10:51:08;;;;;;;46.03;25.37;;;;;;;1.54;83.92;100298.15;1789417;80;20992;-79
2021/12/11 10:53:38;;;;;;;37.70;22.47;;;;;;;1.61;84.17;100302.00;1789884;80;21496;-76
2021/12/11 10:56:08;;;;;;;33.73;18.90;;;;;;;1.71;84.27;100307.59;1789533;80;22916;-76
2021/12/11 10:58:40;;;;;;;31.30;17.70;;;;;;;1.76;83.77;100311.02;1789624;80;21232;-79
2021/12/11 11:01:18;;;;;;;31.77;17.30;;;;;;;1.71;83.46;100310.17;1789703;80;21535;-81
2021/12/11 11:03:54;;;;;;;39.10;20.53;;;;;;;1.74;83.45;100309.72;1789716;80;21520;-83
2021/12/11 11:06:21;;;;;;;38.63;21.87;;;;;;;1.76;83.45;100315.76;1787298;80;20972;-80
2021/12/11 11:08:49;;;;;;;40.83;22.30;;;;;;;1.79;83.19;100322.64;1776128;78;21493;-82
2021/12/11 11:11:21;;;;;;;39.43;22.47;;;;;;;1.83;83.50;100333.42;1782612;78;21044;-77
2021/12/11 11:13:51;;;;;;;37.13;20.33;;;;;;;1.88;83.62;100342.43;1767198;81;21566;-85
2021/12/11 11:16:20;;;;;;;35.50;18.87;;;;;;;1.93;83.56;100344.14;1767685;81;20989;-79
2021/12/11 11:18:49;;;;;;;36.83;19.80;;;;;;;1.97;83.19;100347.16;1767852;81;20988;-83
2021/12/11 11:21:22;;;;;;;41.90;21.82;;;;;;;1.98;83.05;100354.48;1767806;81;20981;-78
2021/12/11 11:23:50;;;;;;;37.43;19.27;;;;;;;2.00;82.97;100360.52;1767690;81;21102;-83
2021/12/11 11:26:22;;;;;;;42.27;21.83;;;;;;;2.01;82.71;100366.09;1766904;79;20984;-81
2021/12/11 11:28:50;;;;;;;37.57;21.27;;;;;;;2.01;82.83;100368.25;1768171;79;21005;-80
2021/12/11 11:31:22;;;;;;;39.53;22.00;;;;;;;2.03;82.86;100369.55;1767129;79;21038;-79
2021/12/11 11:33:51;;;;;;;40.00;22.17;;;;;;;2.04;82.75;100369.11;1774814;79;21067;-81
2021/12/11 11:36:23;;;;;;;40.83;21.83;;;;;;;2.05;82.54;100373.41;1778353;79;21932;-82
2021/12/11 11:38:55;;;;;;;39.20;21.93;;;;;;;2.02;82.53;100379.44;1762822;79;21051;-80
2021/12/11 11:41:33;;;;;;;45.00;22.63;;;;;;;2.04;82.66;100388.50;1748527;79;21047;-79
2021/12/11 11:44:02;;;;;;;43.53;22.47;;;;;;;2.05;82.65;100392.80;1748376;80;21229;-81
2021/12/11 11:46:29;;;;;;;29.73;17.47;;;;;;;2.07;82.49;100396.24;1761569;79;21003;-78
2021/12/11 11:49:00;;;;;;;31.10;17.33;;;;;;;2.05;82.11;100395.38;1765560;79;21347;-80